Time,TemperatureF,DewpointF,PressureIn,WindDirection,WindDirectionDegrees,WindSpeedMPH,WindSpeedGustMPH,Humidity,HourlyPrecipIn,Conditions,Clouds,dailyrainin,SolarRadiationWatts/m^2,SoftwareType,DateUTC
2013-01-27 00:21:00,32.0,32.0,-100.00,North,356,6.0,9.0,100,0.00,,,0.12,0.000000,,2013-01-27 09:21:00,
2013-01-27 00:32:00,32.0,32.0,-100.00,North,356,6.0,9.0,100,0.00,,,0.12,0.000000,,2013-01-27 09:32:00,
2013-01-27 00:41:00,32.0,32.0,-100.00,North,356,6.0,9.0,100,0.00,,,0.12,0.000000,,2013-01-27 09:41:00,
2013-01-27 00:51:00,32.0,32.0,-100.00,North,356,6.0,9.0,100,0.00,,,0.12,0.000000,,2013-01-27 09:51:00,
2013-01-27 01:21:00,31.0,31.0,-100.00,North,6,4.0,8.0,100,0.01,,,0.13,0.000000,,2013-01-27 10:21:00,
2013-01-27 01:31:00,31.0,31.0,-100.00,North,6,4.0,8.0,100,0.01,,,0.13,0.000000,,2013-01-27 10:31:00,
2013-01-27 01:41:00,31.0,31.0,-100.00,North,6,4.0,8.0,100,0.01,,,0.13,0.000000,,2013-01-27 10:41:00,
2013-01-27 01:51:00,31.0,31.0,-100.00,North,6,4.0,8.0,100,0.01,,,0.13,0.000000,,2013-01-27 10:51:00,
2013-01-27 02:21:00,31.0,31.0,-100.00,NNE,28,3.0,5.0,100,0.00,,,0.13,0.000000,,2013-01-27 11:21:00,
2013-01-27 02:32:00,31.0,31.0,-100.00,NNE,28,3.0,5.0,100,0.00,,,0.13,0.000000,,2013-01-27 11:32:00,
2013-01-27 02:42:00,31.0,31.0,-100.00,NNE,28,3.0,5.0,100,0.00,,,0.13,0.000000,,2013-01-27 11:42:00,
2013-01-27 02:52:00,31.0,31.0,-100.00,NNE,28,3.0,5.0,100,0.00,,,0.13,0.000000,,2013-01-27 11:52:00,
2013-01-27 03:21:00,31.0,31.0,-100.00,NNE,16,5.0,9.0,100,0.00,,,0.13,0.000000,,2013-01-27 12:21:00,
2013-01-27 03:32:00,31.0,31.0,-100.00,NNE,16,5.0,9.0,100,0.00,,,0.13,0.000000,,2013-01-27 12:32:00,
2013-01-27 03:42:00,31.0,31.0,-100.00,NNE,16,5.0,9.0,100,0.00,,,0.13,0.000000,,2013-01-27 12:42:00,
2013-01-27 03:52:00,31.0,31.0,-100.00,NNE,16,5.0,9.0,100,0.00,,,0.13,0.000000,,2013-01-27 12:52:00,
2013-01-27 04:22:00,31.0,31.0,-100.00,NNE,14,4.0,6.0,100,0.00,,,0.13,0.000000,,2013-01-27 13:22:00,
2013-01-27 04:32:00,31.0,31.0,-100.00,NNE,14,4.0,6.0,100,0.00,,,0.13,0.000000,,2013-01-27 13:32:00,
2013-01-27 04:42:00,31.0,31.0,-100.00,NNE,14,4.0,6.0,100,0.00,,,0.13,0.000000,,2013-01-27 13:42:00,
2013-01-27 04:52:00,31.0,31.0,-100.00,NNE,14,4.0,6.0,100,0.00,,,0.13,0.000000,,2013-01-27 13:52:00,
2013-01-27 05:22:00,31.0,31.0,-100.00,North,0,4.0,6.0,100,0.00,,,-99.99,0.000000,,2013-01-27 14:22:00,
2013-01-27 05:32:00,31.0,31.0,-100.00,North,0,4.0,6.0,100,0.00,,,-99.99,0.000000,,2013-01-27 14:32:00,
2013-01-27 05:42:00,31.0,31.0,-100.00,North,0,4.0,6.0,100,0.00,,,-99.99,0.000000,,2013-01-27 14:42:00,
2013-01-27 05:52:00,31.0,31.0,-100.00,North,0,4.0,6.0,100,0.00,,,-99.99,0.000000,,2013-01-27 14:52:00,
2013-01-27 06:22:00,31.0,31.0,-100.00,NNE,15,4.0,8.0,100,0.00,,,0.13,0.000000,,2013-01-27 15:22:00,
2013-01-27 06:32:00,31.0,31.0,-100.00,NNE,15,4.0,8.0,100,0.00,,,0.13,0.000000,,2013-01-27 15:32:00,
2013-01-27 06:42:00,31.0,31.0,-100.00,NNE,15,4.0,8.0,100,0.00,,,0.13,0.000000,,2013-01-27 15:42:00,
2013-01-27 06:52:00,31.0,31.0,-100.00,NNE,15,4.0,8.0,100,0.00,,,0.13,0.000000,,2013-01-27 15:52:00,
2013-01-27 07:21:00,31.0,31.0,-100.00,NNE,29,4.0,7.0,100,0.00,,,0.09,0.000000,,2013-01-27 16:21:00,
2013-01-27 07:32:00,31.0,31.0,-100.00,NNE,29,4.0,7.0,100,0.00,,,0.09,0.000000,,2013-01-27 16:32:00,
2013-01-27 07:42:00,31.0,31.0,-100.00,NNE,29,4.0,7.0,100,0.00,,,0.09,0.000000,,2013-01-27 16:42:00,
2013-01-27 07:52:00,31.0,31.0,-100.00,NNE,29,4.0,7.0,100,0.00,,,0.09,0.000000,,2013-01-27 16:52:00,
2013-01-27 08:21:00,29.0,29.0,-100.00,ENE,63,3.0,13.0,100,0.00,,,0.08,0.000000,,2013-01-27 17:21:00,
2013-01-27 08:32:00,29.0,29.0,-100.00,ENE,63,3.0,13.0,100,0.00,,,0.08,0.000000,,2013-01-27 17:32:00,
2013-01-27 08:42:00,29.0,29.0,-100.00,ENE,63,3.0,13.0,100,0.00,,,0.08,0.000000,,2013-01-27 17:42:00,
2013-01-27 08:52:00,29.0,29.0,-100.00,ENE,63,3.0,13.0,100,0.00,,,0.08,0.000000,,2013-01-27 17:52:00,
2013-01-27 09:22:00,30.0,30.0,-100.00,NNE,28,5.0,9.0,100,0.00,,,0.08,6.000000,,2013-01-27 18:22:00,
2013-01-27 09:32:00,30.0,30.0,-100.00,NNE,28,5.0,9.0,100,0.00,,,0.08,6.000000,,2013-01-27 18:32:00,
2013-01-27 09:42:00,30.0,30.0,-100.00,NNE,28,5.0,9.0,100,0.00,,,0.08,6.000000,,2013-01-27 18:42:00,
2013-01-27 09:51:00,30.0,30.0,-100.00,NNE,28,5.0,9.0,100,0.00,,,0.08,6.000000,,2013-01-27 18:51:00,
2013-01-27 10:22:00,31.0,31.0,-100.00,NE,53,2.0,8.0,100,0.00,,,0.08,24.000000,,2013-01-27 19:22:00,
2013-01-27 10:32:00,31.0,31.0,-100.00,NE,53,2.0,8.0,100,0.00,,,0.08,24.000000,,2013-01-27 19:32:00,
2013-01-27 10:41:00,31.0,31.0,-100.00,NE,53,2.0,8.0,100,0.00,,,0.08,24.000000,,2013-01-27 19:41:00,
2013-01-27 10:51:00,31.0,31.0,-100.00,NE,53,2.0,8.0,100,0.00,,,0.08,24.000000,,2013-01-27 19:51:00,
2013-01-27 11:22:00,33.0,33.0,-100.00,NE,47,4.0,7.0,100,0.00,,,0.08,56.000000,,2013-01-27 20:22:00,
2013-01-27 11:32:00,33.0,33.0,-100.00,NE,47,4.0,7.0,100,0.00,,,0.08,56.000000,,2013-01-27 20:32:00,
2013-01-27 11:42:00,33.0,33.0,-100.00,NE,47,4.0,7.0,100,0.00,,,0.08,56.000000,,2013-01-27 20:42:00,
2013-01-27 11:52:00,33.0,33.0,-100.00,NE,47,4.0,7.0,100,0.00,,,0.08,56.000000,,2013-01-27 20:52:00,
2013-01-27 12:22:00,32.0,31.0,-100.00,ENE,62,4.0,11.0,97,0.00,,,0.06,51.000000,,2013-01-27 21:22:00,
2013-01-27 12:32:00,32.0,31.0,-100.00,ENE,62,4.0,11.0,97,0.00,,,0.06,51.000000,,2013-01-27 21:32:00,
2013-01-27 12:42:00,32.0,31.0,-100.00,ENE,62,4.0,11.0,97,0.00,,,0.06,51.000000,,2013-01-27 21:42:00,
2013-01-27 12:52:00,32.0,31.0,-100.00,ENE,62,4.0,11.0,97,0.00,,,0.06,51.000000,,2013-01-27 21:52:00,
2013-01-27 13:21:00,34.0,32.0,-100.00,NE,56,6.0,11.0,92,0.00,,,0.05,65.000000,,2013-01-27 22:21:00,
2013-01-27 13:32:00,34.0,32.0,-100.00,NE,56,6.0,11.0,92,0.00,,,0.05,65.000000,,2013-01-27 22:32:00,
2013-01-27 13:42:00,34.0,32.0,-100.00,NE,56,6.0,11.0,92,0.00,,,0.05,65.000000,,2013-01-27 22:42:00,
2013-01-27 13:51:00,34.0,32.0,-100.00,NE,56,6.0,11.0,92,0.00,,,0.05,65.000000,,2013-01-27 22:51:00,
2013-01-27 14:12:00,32.0,29.0,-100.00,NE,36,6.0,11.0,89,0.00,,,0.03,43.000000,,2013-01-27 23:12:00,
2013-01-27 14:21:00,32.0,29.0,-100.00,NE,36,6.0,11.0,89,0.00,,,0.03,43.000000,,2013-01-27 23:21:00,
2013-01-27 14:32:00,32.0,29.0,-100.00,NE,36,6.0,11.0,89,0.00,,,0.03,43.000000,,2013-01-27 23:32:00,
2013-01-27 14:41:00,32.0,29.0,-100.00,NE,36,6.0,11.0,89,0.00,,,0.03,43.000000,,2013-01-27 23:41:00,
2013-01-27 14:52:00,32.0,29.0,-100.00,NE,36,6.0,11.0,89,0.00,,,0.03,43.000000,,2013-01-27 23:52:00,
2013-01-27 15:21:00,31.0,29.0,-100.00,North,8,4.0,11.0,94,0.00,,,0.02,17.000000,,2013-01-28 00:21:00,
2013-01-27 15:32:00,31.0,29.0,-100.00,North,8,4.0,11.0,94,0.00,,,0.02,17.000000,,2013-01-28 00:32:00,
2013-01-27 15:41:00,31.0,29.0,-100.00,North,8,4.0,11.0,94,0.00,,,0.02,17.000000,,2013-01-28 00:41:00,
2013-01-27 15:51:00,31.0,29.0,-100.00,North,8,4.0,11.0,94,0.00,,,0.02,17.000000,,2013-01-28 00:51:00,
2013-01-27 16:21:00,30.0,28.0,-100.00,North,8,5.0,9.0,94,0.00,,,0.02,12.000000,,2013-01-28 01:21:00,
2013-01-27 16:32:00,30.0,28.0,-100.00,North,8,5.0,9.0,94,0.00,,,0.02,12.000000,,2013-01-28 01:32:00,
2013-01-27 16:42:00,30.0,28.0,-100.00,North,8,5.0,9.0,94,0.00,,,0.02,12.000000,,2013-01-28 01:42:00,
2013-01-27 16:51:00,30.0,28.0,-100.00,North,8,5.0,9.0,94,0.00,,,0.02,12.000000,,2013-01-28 01:51:00,
2013-01-27 17:21:00,29.0,29.0,-100.00,NNE,15,5.0,9.0,100,0.00,,,0.01,1.000000,,2013-01-28 02:21:00,
2013-01-27 17:32:00,29.0,29.0,-100.00,NNE,15,5.0,9.0,100,0.00,,,0.01,1.000000,,2013-01-28 02:32:00,
2013-01-27 17:41:00,29.0,29.0,-100.00,NNE,15,5.0,9.0,100,0.00,,,0.01,1.000000,,2013-01-28 02:41:00,
2013-01-27 17:52:00,29.0,29.0,-100.00,NNE,15,5.0,9.0,100,0.00,,,0.01,1.000000,,2013-01-28 02:52:00,
2013-01-27 18:21:00,29.0,29.0,-100.00,NNE,19,4.0,10.0,100,0.00,,,0.01,0.000000,,2013-01-28 03:21:00,
2013-01-27 18:32:00,29.0,29.0,-100.00,NNE,19,4.0,10.0,100,0.00,,,0.01,0.000000,,2013-01-28 03:32:00,
2013-01-27 18:41:00,29.0,29.0,-100.00,NNE,19,4.0,10.0,100,0.00,,,0.01,0.000000,,2013-01-28 03:41:00,
2013-01-27 18:52:00,29.0,29.0,-100.00,NNE,19,4.0,10.0,100,0.00,,,0.01,0.000000,,2013-01-28 03:52:00,
2013-01-27 19:21:00,30.0,30.0,-100.00,NNE,27,5.0,9.0,100,0.00,,,0.01,0.000000,,2013-01-28 04:21:00,
2013-01-27 19:32:00,30.0,30.0,-100.00,NNE,27,5.0,9.0,100,0.00,,,0.01,0.000000,,2013-01-28 04:32:00,
2013-01-27 19:41:00,30.0,30.0,-100.00,NNE,27,5.0,9.0,100,0.00,,,0.01,0.000000,,2013-01-28 04:41:00,
2013-01-27 19:52:00,30.0,30.0,-100.00,NNE,27,5.0,9.0,100,0.00,,,0.01,0.000000,,2013-01-28 04:52:00,
2013-01-27 20:21:00,29.0,29.0,-100.00,NE,38,5.0,11.0,100,0.00,,,0.01,0.000000,,2013-01-28 05:21:00,
2013-01-27 20:31:00,29.0,29.0,-100.00,NE,38,5.0,11.0,100,0.00,,,0.01,0.000000,,2013-01-28 05:31:00,
2013-01-27 20:41:00,29.0,29.0,-100.00,NE,38,5.0,11.0,100,0.00,,,0.01,0.000000,,2013-01-28 05:41:00,
2013-01-27 20:52:00,29.0,29.0,-100.00,NE,38,5.0,11.0,100,0.00,,,0.01,0.000000,,2013-01-28 05:52:00,
2013-01-27 21:21:00,30.0,30.0,-100.00,North,10,6.0,9.0,100,0.00,,,0.01,0.000000,,2013-01-28 06:21:00,
2013-01-27 21:32:00,30.0,30.0,-100.00,North,10,6.0,9.0,100,0.00,,,0.01,0.000000,,2013-01-28 06:32:00,
2013-01-27 21:42:00,30.0,30.0,-100.00,North,10,6.0,9.0,100,0.00,,,0.01,0.000000,,2013-01-28 06:42:00,
2013-01-27 21:52:00,30.0,30.0,-100.00,North,10,6.0,9.0,100,0.00,,,0.01,0.000000,,2013-01-28 06:52:00,
2013-01-27 22:21:00,29.0,29.0,-100.00,NNE,14,6.0,12.0,100,0.00,,,0.01,0.000000,,2013-01-28 07:21:00,
2013-01-27 22:31:00,29.0,29.0,-100.00,NNE,14,6.0,12.0,100,0.00,,,0.01,0.000000,,2013-01-28 07:31:00,
2013-01-27 22:41:00,29.0,29.0,-100.00,NNE,14,6.0,12.0,100,0.00,,,0.01,0.000000,,2013-01-28 07:41:00,
2013-01-27 22:51:00,29.0,29.0,-100.00,NNE,14,6.0,12.0,100,0.00,,,0.01,0.000000,,2013-01-28 07:51:00,
2013-01-27 23:21:00,30.0,30.0,-100.00,North,6,7.0,12.0,100,0.00,,,0.01,0.000000,,2013-01-28 08:21:00,
2013-01-27 23:32:00,30.0,30.0,-100.00,North,6,7.0,12.0,100,0.00,,,0.01,0.000000,,2013-01-28 08:32:00,
2013-01-27 23:42:00,30.0,30.0,-100.00,North,6,7.0,12.0,100,0.00,,,0.01,0.000000,,2013-01-28 08:42:00,
2013-01-27 23:52:00,30.0,30.0,-100.00,North,6,7.0,12.0,100,0.00,,,0.01,0.000000,,2013-01-28 08:52:00,